Time;durP1;ratioP1;P1;durP2;ratioP2;P2;SDS_P1;SDS_P2;PMS_P1;PMS_P2;Temp;Humidity;BMP_temperature;BMP_pressure;BME280_temperature;BME280_humidity;BME280_pressure;Samples;Min_cycle;Max_cycle;Signal;HPM_P1;HPM_P2
2020/12/26 00:01:53;;;;;;;7.13;3.30;;;4.20;99.90;;;;;;5072913;28;20237;-44
2020/12/26 00:04:19;;;;;;;6.13;3.25;;;4.30;99.90;;;;;;5071422;28;20195;-45
2020/12/26 00:06:50;;;;;;;8.02;3.72;;;4.30;99.90;;;;;;5071673;28;20196;-45
2020/12/26 00:09:17;;;;;;;7.75;3.30;;;4.40;99.90;;;;;;5071844;28;20195;-45
2020/12/26 00:11:44;;;;;;;9.45;2.80;;;4.10;99.90;;;;;;5071551;28;20191;-45
2020/12/26 00:14:11;;;;;;;7.38;3.58;;;4.20;99.90;;;;;;5070289;28;20207;-45
2020/12/26 00:16:37;;;;;;;7.50;3.60;;;4.20;99.90;;;;;;5071837;28;20196;-44
2020/12/26 00:19:04;;;;;;;7.75;3.10;;;4.20;99.90;;;;;;5071596;28;20191;-45
2020/12/26 00:21:30;;;;;;;9.07;3.45;;;3.90;99.90;;;;;;5070260;28;20720;-44
2020/12/26 00:23:57;;;;;;;4.70;3.00;;;4.20;99.90;;;;;;5071231;28;20219;-45
2020/12/26 00:26:23;;;;;;;4.28;2.75;;;4.10;99.90;;;;;;5071537;28;20249;-45
2020/12/26 00:28:51;;;;;;;5.05;3.10;;;4.00;99.90;;;;;;5071476;28;20241;-45
2020/12/26 00:31:18;;;;;;;4.32;2.70;;;4.00;99.90;;;;;;5074455;28;20229;-44
2020/12/26 00:33:45;;;;;;;5.50;2.95;;;4.00;99.90;;;;;;5075032;28;20211;-46
2020/12/26 00:36:11;;;;;;;8.35;3.10;;;4.10;99.90;;;;;;5075423;28;20199;-44
2020/12/26 00:38:38;;;;;;;4.88;3.10;;;3.50;99.90;;;;;;5075513;28;20195;-45
2020/12/26 00:41:04;;;;;;;5.38;3.13;;;4.10;99.90;;;;;;5075289;28;20573;-45
2020/12/26 00:43:31;;;;;;;5.32;3.35;;;3.40;99.90;;;;;;5074824;28;20223;-45
2020/12/26 00:45:58;;;;;;;7.47;2.88;;;3.90;99.90;;;;;;5075152;28;20211;-45
2020/12/26 00:48:25;;;;;;;3.45;2.78;;;4.00;99.90;;;;;;5075306;28;20195;-45
2020/12/26 00:50:51;;;;;;;4.32;3.05;;;4.10;99.90;;;;;;5073929;28;20214;-45
2020/12/26 00:53:18;;;;;;;4.22;2.60;;;4.00;99.90;;;;;;5073451;28;20224;-45
2020/12/26 00:55:45;;;;;;;4.07;2.35;;;4.00;99.90;;;;;;5073952;28;20210;-45
2020/12/26 00:58:12;;;;;;;6.07;2.38;;;3.80;99.90;;;;;;5073842;28;20203;-45
2020/12/26 01:00:39;;;;;;;8.30;2.92;;;3.90;99.90;;;;;;5073604;28;20725;-45
2020/12/26 01:03:31;;;;;;;4.70;3.63;;;3.90;99.90;;;;;;5073419;28;20237;-45
2020/12/26 01:05:58;;;;;;;4.82;3.38;;;3.80;99.90;;;;;;5075000;28;20195;-44
2020/12/26 01:08:25;;;;;;;6.63;3.17;;;3.80;99.90;;;;;;5074940;28;20195;-45
2020/12/26 01:10:52;;;;;;;3.78;2.90;;;4.00;99.90;;;;;;5074820;28;20245;-45
2020/12/26 01:13:18;;;;;;;7.20;2.90;;;4.00;99.90;;;;;;5074230;28;20215;-45
2020/12/26 01:15:45;;;;;;;4.25;3.03;;;3.90;99.90;;;;;;5074882;28;20369;-45
2020/12/26 01:18:11;;;;;;;6.32;3.50;;;3.80;99.90;;;;;;5074694;28;20206;-45
2020/12/26 01:20:39;;;;;;;7.00;2.70;;;4.00;99.90;;;;;;5075012;28;20210;-46
2020/12/26 01:23:05;;;;;;;5.65;3.13;;;3.40;99.90;;;;;;5074233;28;20586;-46
2020/12/26 01:25:32;;;;;;;7.40;3.33;;;3.90;99.90;;;;;;5074728;28;20199;-46
2020/12/26 01:27:58;;;;;;;6.00;3.35;;;4.00;99.90;;;;;;5074523;28;20199;-47
2020/12/26 01:30:25;;;;;;;5.47;3.00;;;3.50;99.90;;;;;;5074564;28;20571;-45
2020/12/26 01:32:51;;;;;;;4.50;3.15;;;3.70;99.90;;;;;;5072831;28;20223;-46
2020/12/26 01:35:18;;;;;;;4.50;2.58;;;3.60;99.90;;;;;;5073000;28;20213;-46
2020/12/26 01:37:45;;;;;;;5.40;3.40;;;3.90;99.90;;;;;;5074350;28;20187;-45
2020/12/26 01:40:12;;;;;;;6.10;3.90;;;3.70;99.90;;;;;;5074230;28;20281;-46
2020/12/26 01:42:38;;;;;;;9.15;3.53;;;3.60;99.90;;;;;;5073680;28;20226;-45
2020/12/26 01:45:06;;;;;;;11.40;3.80;;;3.80;99.90;;;;;;5074337;28;20196;-46
2020/12/26 01:47:32;;;;;;;6.50;4.10;;;3.50;99.90;;;;;;5074196;28;20215;-46
2020/12/26 01:50:00;;;;;;;8.32;3.38;;;4.00;99.90;;;;;;5074204;28;20660;-46
2020/12/26 01:52:27;;;;;;;4.35;2.88;;;4.00;99.90;;;;;;5072254;28;20244;-46
2020/12/26 01:54:54;;;;;;;5.35;3.33;;;3.70;99.90;;;;;;5074579;28;20253;-46
2020/12/26 01:57:27;;;;;;;9.90;3.50;;;3.60;99.90;;;;;;5074185;28;20584;-45
2020/12/26 01:59:53;;;;;;;7.57;3.53;;;3.90;99.90;;;;;;5074021;28;20192;-46
2020/12/26 02:02:20;;;;;;;5.43;3.75;;;3.90;99.90;;;;;;5073487;28;20215;-46
2020/12/26 02:04:46;;;;;;;5.35;3.55;;;3.70;99.90;;;;;;5073929;28;20218;-46
2020/12/26 02:07:13;;;;;;;6.38;3.70;;;3.60;99.90;;;;;;5073920;28;20195;-45
2020/12/26 02:09:39;;;;;;;8.35;3.70;;;3.90;99.90;;;;;;5073920;28;20222;-44
2020/12/26 02:12:07;;;;;;;6.50;3.05;;;3.90;99.90;;;;;;5074035;28;20215;-45
2020/12/26 02:14:33;;;;;;;6.15;4.10;;;3.60;99.90;;;;;;5073837;28;20195;-45
2020/12/26 02:17:00;;;;;;;4.25;2.90;;;3.90;99.90;;;;;;5073812;28;20691;-46
2020/12/26 02:19:27;;;;;;;5.00;2.80;;;3.80;99.90;;;;;;5073742;28;20202;-46
2020/12/26 02:21:53;;;;;;;4.20;2.90;;;4.00;99.90;;;;;;5073250;28;20219;-46
2020/12/26 02:24:21;;;;;;;5.22;3.33;;;4.00;99.90;;;;;;5073234;28;20237;-46
2020/12/26 02:26:48;;;;;;;5.53;4.00;;;4.30;99.90;;;;;;5073623;28;20670;-46
2020/12/26 02:29:14;;;;;;;5.32;3.50;;;4.10;99.90;;;;;;5073418;28;20198;-45
2020/12/26 02:31:41;;;;;;;3.80;3.35;;;4.00;99.90;;;;;;5073484;28;20207;-46
2020/12/26 02:34:07;;;;;;;7.53;3.70;;;3.90;99.90;;;;;;5073019;28;20192;-46
2020/12/26 02:36:36;;;;;;;8.35;3.83;;;3.80;99.90;;;;;;5073225;28;20729;-46
2020/12/26 02:39:05;;;;;;;5.72;3.25;;;4.00;99.90;;;;;;5073403;28;20524;-45
2020/12/26 02:41:32;;;;;;;6.55;2.92;;;3.40;99.90;;;;;;5073067;28;20256;-46
2020/12/26 02:43:58;;;;;;;5.80;3.15;;;3.90;99.90;;;;;;5072718;28;20217;-45
2020/12/26 02:46:25;;;;;;;5.47;3.35;;;4.00;99.90;;;;;;5073206;28;20407;-46
2020/12/26 02:48:51;;;;;;;5.90;3.15;;;3.90;99.90;;;;;;5073026;28;20203;-46
2020/12/26 02:51:18;;;;;;;5.40;2.97;;;3.90;99.90;;;;;;5072976;28;20195;-45
2020/12/26 02:53:44;;;;;;;5.68;2.85;;;3.90;99.90;;;;;;5072144;28;20237;-45
2020/12/26 02:56:11;;;;;;;6.43;2.80;;;3.70;99.90;;;;;;5072542;28;20207;-44
2020/12/26 02:58:40;;;;;;;7.53;3.65;;;3.70;99.90;;;;;;5073905;28;20281;-46
2020/12/26 03:01:07;;;;;;;9.32;3.78;;;3.70;99.90;;;;;;5073421;28;20312;-45
2020/12/26 03:03:34;;;;;;;6.05;3.60;;;3.60;99.90;;;;;;5073228;28;20219;-46
2020/12/26 03:06:00;;;;;;;5.85;3.40;;;3.50;99.90;;;;;;5073408;28;20195;-46
2020/12/26 03:08:27;;;;;;;3.80;2.95;;;3.80;99.90;;;;;;5072603;28;20683;-45
2020/12/26 03:10:53;;;;;;;3.92;2.92;;;3.50;99.90;;;;;;5073215;28;20241;-46
2020/12/26 03:13:20;;;;;;;6.65;3.20;;;3.80;99.90;;;;;;5073573;28;20555;-46
2020/12/26 03:15:47;;;;;;;4.60;3.10;;;3.80;99.90;;;;;;5072831;28;20187;-46
2020/12/26 03:18:14;;;;;;;3.85;2.42;;;3.50;99.90;;;;;;5072704;28;20222;-46
2020/12/26 03:20:40;;;;;;;5.03;2.75;;;3.60;99.90;;;;;;5071310;28;20207;-46
2020/12/26 03:23:07;;;;;;;6.85;3.15;;;3.60;99.90;;;;;;5071072;28;20238;-46
2020/12/26 03:25:33;;;;;;;6.10;2.15;;;3.00;99.90;;;;;;5072819;28;20199;-46
2020/12/26 03:28:00;;;;;;;4.57;2.65;;;3.60;99.90;;;;;;5072585;28;20563;-46
2020/12/26 03:30:26;;;;;;;4.30;2.33;;;3.70;99.90;;;;;;5072398;28;20292;-46
2020/12/26 03:32:54;;;;;;;4.30;2.80;;;3.40;99.90;;;;;;5072356;28;20211;-45
2020/12/26 03:35:20;;;;;;;8.05;3.53;;;3.70;99.90;;;;;;5072463;28;20605;-46
2020/12/26 03:37:47;;;;;;;3.85;2.47;;;3.50;99.90;;;;;;5072526;28;20198;-45
2020/12/26 03:40:14;;;;;;;4.20;2.95;;;2.80;99.90;;;;;;5072228;28;20199;-45
2020/12/26 03:42:41;;;;;;;3.92;2.70;;;3.70;99.90;;;;;;5071814;28;20211;-46
2020/12/26 03:45:07;;;;;;;4.65;2.60;;;3.90;99.90;;;;;;5072084;28;20282;-46
2020/12/26 03:47:34;;;;;;;4.25;2.30;;;3.60;99.90;;;;;;5072074;28;20667;-46
2020/12/26 03:50:02;;;;;;;5.57;3.20;;;3.50;99.90;;;;;;5072300;28;20579;-46
2020/12/26 03:52:28;;;;;;;5.18;2.65;;;3.60;99.90;;;;;;5072150;28;20280;-45
2020/12/26 03:54:55;;;;;;;2.67;2.30;;;3.70;99.90;;;;;;5072697;28;20191;-45
2020/12/26 03:57:21;;;;;;;3.58;2.08;;;3.50;99.90;;;;;;5072683;28;20241;-45
2020/12/26 03:59:48;;;;;;;5.88;2.50;;;3.70;99.90;;;;;;5072361;28;20202;-46
2020/12/26 04:02:14;;;;;;;6.93;2.22;;;3.60;99.90;;;;;;5072197;28;20294;-45
2020/12/26 04:04:41;;;;;;;4.18;1.95;;;3.80;99.90;;;;;;5071187;28;20219;-46
2020/12/26 04:07:08;;;;;;;3.78;2.10;;;2.90;99.90;;;;;;5072054;28;20221;-46
2020/12/26 04:09:35;;;;;;;4.88;2.40;;;3.70;99.90;;;;;;5071668;28;20218;-45
2020/12/26 04:12:01;;;;;;;3.65;2.50;;;3.70;99.90;;;;;;5071563;28;20239;-46
2020/12/26 04:14:28;;;;;;;4.15;2.08;;;3.60;99.90;;;;;;5071206;28;20252;-46
2020/12/26 04:16:57;;;;;;;6.25;2.33;;;3.50;99.90;;;;;;5071584;28;20671;-46
2020/12/26 04:19:24;;;;;;;3.00;2.00;;;3.60;99.90;;;;;;5071800;28;20668;-46
2020/12/26 04:21:50;;;;;;;5.00;2.25;;;3.40;99.90;;;;;;5071582;28;20219;-46
2020/12/26 04:24:18;;;;;;;2.63;2.10;;;3.70;99.90;;;;;;5071126;28;20219;-46
2020/12/26 04:26:45;;;;;;;5.03;2.30;;;3.70;99.90;;;;;;5071640;28;20736;-46
2020/12/26 04:29:11;;;;;;;4.72;2.15;;;3.50;99.90;;;;;;5071392;28;20245;-46
2020/12/26 04:31:38;;;;;;;4.00;2.40;;;3.00;99.90;;;;;;5071342;28;20201;-46
2020/12/26 04:34:04;;;;;;;6.00;2.08;;;3.80;99.90;;;;;;5071304;28;20187;-45
2020/12/26 04:36:31;;;;;;;2.60;2.05;;;3.30;99.90;;;;;;5071291;28;20203;-45
2020/12/26 04:38:58;;;;;;;4.93;2.63;;;3.60;99.90;;;;;;5071384;28;20219;-46
2020/12/26 04:41:25;;;;;;;5.63;2.15;;;3.50;99.90;;;;;;5071310;28;20199;-46
2020/12/26 04:43:55;;;;;;;4.22;2.10;;;3.50;99.90;;;;;;5070899;28;20238;-46
2020/12/26 04:46:27;;;;;;;12.73;2.85;;;3.60;99.90;;;;;;5071487;28;20222;-46
2020/12/26 04:49:04;;;;;;;8.00;2.55;;;3.60;99.90;;;;;;5071475;28;20563;-46
2020/12/26 04:51:33;;;;;;;2.25;1.88;;;3.50;99.90;;;;;;5071324;28;20218;-46
2020/12/26 04:54:08;;;;;;;5.43;2.30;;;3.90;99.90;;;;;;5070846;28;20206;-46
2020/12/26 04:56:41;;;;;;;3.58;2.30;;;3.70;99.90;;;;;;5071317;28;20571;-46
2020/12/26 04:59:09;;;;;;;6.40;2.53;;;3.60;99.90;;;;;;5071333;28;20195;-45
2020/12/26 05:01:37;;;;;;;2.88;2.00;;;3.90;99.90;;;;;;5071055;28;20195;-45
2020/12/26 05:04:04;;;;;;;6.63;2.08;;;3.90;99.90;;;;;;5069458;28;20270;-46
2020/12/26 05:06:31;;;;;;;2.95;1.90;;;3.70;99.90;;;;;;5071060;28;20569;-46
2020/12/26 05:08:58;;;;;;;6.25;2.50;;;3.70;99.90;;;;;;5071096;28;20206;-45
2020/12/26 05:11:25;;;;;;;3.95;2.20;;;3.60;99.90;;;;;;5071435;28;20198;-45
2020/12/26 05:13:52;;;;;;;3.63;2.60;;;3.30;99.90;;;;;;5070880;28;20707;-45
2020/12/26 05:16:19;;;;;;;5.35;2.20;;;3.70;99.90;;;;;;5072109;28;20604;-46
2020/12/26 05:18:49;;;;;;;4.18;2.65;;;3.60;99.90;;;;;;5075270;28;20192;-46
2020/12/26 05:21:24;;;;;;;7.75;4.05;;;2.80;99.90;;;;;;5073607;28;20289;-45
2020/12/26 05:24:06;;;;;;;6.20;2.33;;;3.70;99.90;;;;;;5074085;28;20227;-46
2020/12/26 05:26:42;;;;;;;4.18;2.38;;;3.60;99.90;;;;;;5074638;28;20682;-46
2020/12/26 05:29:11;;;;;;;3.05;2.00;;;3.70;99.90;;;;;;5074866;28;20191;-45
2020/12/26 05:31:45;;;;;;;3.80;1.90;;;3.00;99.90;;;;;;5074666;28;20199;-46
2020/12/26 05:34:12;;;;;;;3.97;1.92;;;3.80;99.90;;;;;;5074498;28;20688;-46
2020/12/26 05:36:40;;;;;;;4.40;2.28;;;3.70;99.90;;;;;;5074435;28;20618;-46
2020/12/26 05:39:07;;;;;;;2.00;1.60;;;3.50;99.90;;;;;;5074513;28;20212;-45
2020/12/26 05:41:37;;;;;;;1.85;1.48;;;3.70;99.90;;;;;;5074258;28;20229;-45
2020/12/26 05:44:03;;;;;;;5.05;2.80;;;3.40;99.90;;;;;;5073869;28;20726;-46
2020/12/26 05:46:31;;;;;;;5.63;1.98;;;3.70;99.90;;;;;;5074326;28;20674;-46
2020/12/26 05:48:57;;;;;;;8.35;2.55;;;3.60;99.90;;;;;;5074277;28;20241;-46
2020/12/26 05:51:25;;;;;;;4.40;2.30;;;3.60;99.90;;;;;;5074100;28;20221;-46
2020/12/26 05:53:55;;;;;;;5.10;1.80;;;3.40;99.90;;;;;;5073984;28;20211;-45
2020/12/26 05:56:22;;;;;;;4.82;1.88;;;3.50;99.90;;;;;;5074095;28;20195;-45
2020/12/26 05:58:49;;;;;;;12.55;2.70;;;3.70;99.90;;;;;;5074266;28;20478;-46
2020/12/26 06:01:20;;;;;;;5.47;2.00;;;3.50;99.90;;;;;;5074050;28;20230;-45
2020/12/26 06:03:48;;;;;;;7.60;2.55;;;3.40;99.90;;;;;;5073801;28;20700;-45
2020/12/26 06:06:15;;;;;;;5.43;1.98;;;3.20;99.90;;;;;;5073945;28;20203;-45
2020/12/26 06:08:42;;;;;;;3.65;2.35;;;3.40;99.90;;;;;;5073866;28;20196;-45
2020/12/26 06:11:09;;;;;;;4.72;1.80;;;3.10;99.90;;;;;;5073758;28;20563;-45
2020/12/26 06:13:38;;;;;;;7.28;1.90;;;3.40;99.90;;;;;;5073224;28;20223;-45
2020/12/26 06:16:10;;;;;;;5.20;2.97;;;2.90;99.90;;;;;;5072612;28;20354;-46
2020/12/26 06:18:40;;;;;;;6.68;2.20;;;3.10;99.90;;;;;;5073754;28;20241;-45
2020/12/26 06:21:08;;;;;;;5.10;3.13;;;3.00;99.90;;;;;;5073802;28;20551;-45
2020/12/26 06:23:38;;;;;;;5.85;3.55;;;2.90;99.90;;;;;;5073008;28;20226;-45
2020/12/26 06:26:05;;;;;;;6.35;4.25;;;2.70;99.90;;;;;;5073541;28;20191;-45
2020/12/26 06:28:33;;;;;;;5.63;3.33;;;2.70;99.90;;;;;;5072479;28;20201;-45
2020/12/26 06:31:03;;;;;;;5.93;4.45;;;2.30;99.90;;;;;;5073547;28;20556;-45
2020/12/26 06:33:32;;;;;;;5.78;4.10;;;2.60;99.90;;;;;;5073192;28;20691;-45
2020/12/26 06:35:59;;;;;;;7.10;5.07;;;2.10;99.90;;;;;;5073545;28;20670;-45
2020/12/26 06:38:28;;;;;;;9.38;4.80;;;2.70;99.90;;;;;;5073287;28;20192;-45
2020/12/26 06:40:57;;;;;;;7.78;5.32;;;2.90;99.90;;;;;;5073318;28;20739;-45
2020/12/26 06:43:49;;;;;;;7.35;5.43;;;2.20;99.90;;;;;;5072691;28;20226;-45
2020/12/26 06:46:41;;;;;;;13.50;5.97;;;2.80;99.90;;;;;;5073066;28;20237;-45
2020/12/26 06:49:27;;;;;;;9.80;6.15;;;2.70;99.90;;;;;;5071893;28;20216;-45
2020/12/26 06:51:54;;;;;;;10.80;6.90;;;2.50;99.90;;;;;;5072822;28;20699;-45
2020/12/26 06:54:47;;;;;;;9.35;7.15;;;2.80;99.90;;;;;;5072646;28;20199;-46
2020/12/26 06:57:37;;;;;;;10.68;7.57;;;2.80;99.90;;;;;;5072836;28;20553;-47
2020/12/26 07:00:25;;;;;;;10.55;8.05;;;2.60;99.90;;;;;;5072834;28;20271;-45
2020/12/26 07:03:20;;;;;;;11.10;6.57;;;3.10;99.90;;;;;;5072358;28;20211;-45
2020/12/26 07:05:47;;;;;;;11.15;6.80;;;2.70;99.90;;;;;;5071325;28;20195;-45
2020/12/26 07:08:21;;;;;;;9.65;7.22;;;2.80;99.90;;;;;;5072714;28;20668;-45
2020/12/26 07:10:49;;;;;;;15.15;6.88;;;2.70;99.90;;;;;;5072631;28;20598;-45
2020/12/26 07:13:46;;;;;;;12.80;7.75;;;2.90;99.90;;;;;;5072314;28;20707;-46
2020/12/26 07:16:38;;;;;;;11.88;7.35;;;2.60;99.90;;;;;;5038332;28;20557;-45
2020/12/26 07:19:33;;;;;;;13.15;8.75;;;2.60;99.90;;;;;;5072587;28;20195;-45
2020/12/26 07:22:01;;;;;;;10.88;8.10;;;2.90;99.90;;;;;;5072215;28;20215;-46
2020/12/26 07:24:33;;;;;;;15.18;8.95;;;2.80;99.90;;;;;;5072292;28;20216;-45
2020/12/26 07:27:21;;;;;;;12.75;8.43;;;2.70;99.90;;;;;;5072192;28;20687;-46
2020/12/26 07:29:53;;;;;;;12.13;8.70;;;2.50;99.90;;;;;;5072270;28;20668;-45
2020/12/26 07:32:38;;;;;;;13.90;8.98;;;2.60;99.90;;;;;;5071833;28;20249;-45
2020/12/26 07:35:06;;;;;;;14.43;9.82;;;2.90;99.90;;;;;;5072062;28;20199;-45
2020/12/26 07:37:32;;;;;;;12.88;10.57;;;2.90;99.90;;;;;;5072104;28;20272;-45
2020/12/26 07:39:59;;;;;;;16.00;10.77;;;2.80;99.90;;;;;;5072077;28;20252;-46
2020/12/26 07:42:27;;;;;;;13.27;9.80;;;3.10;99.90;;;;;;5051641;28;20219;-45
2020/12/26 07:44:53;;;;;;;13.05;9.95;;;2.80;99.90;;;;;;5052268;28;20596;-45
2020/12/26 07:47:20;;;;;;;14.15;10.35;;;2.80;99.90;;;;;;5051978;28;20656;-46
2020/12/26 07:49:57;;;;;;;11.20;9.98;;;2.70;99.90;;;;;;5051905;28;20653;-46
2020/12/26 07:52:24;;;;;;;22.10;12.38;;;2.80;99.90;;;;;;5051559;28;20242;-45
2020/12/26 07:54:57;;;;;;;14.95;10.98;;;3.20;99.90;;;;;;5051919;28;20188;-45
2020/12/26 07:57:24;;;;;;;15.88;10.45;;;2.90;99.90;;;;;;5051628;28;20198;-45
2020/12/26 07:59:51;;;;;;;16.50;10.68;;;3.30;99.90;;;;;;5051801;28;20192;-45
2020/12/26 08:02:18;;;;;;;13.65;10.10;;;3.20;99.90;;;;;;5050262;28;20223;-45
2020/12/26 08:04:45;;;;;;;17.13;10.85;;;2.90;99.90;;;;;;5051832;28;20251;-45
2020/12/26 08:07:12;;;;;;;18.48;12.07;;;2.80;99.90;;;;;;5051674;28;20227;-45
2020/12/26 08:09:39;;;;;;;17.90;11.70;;;3.20;99.90;;;;;;5051635;28;20192;-46
2020/12/26 08:12:06;;;;;;;21.48;12.30;;;3.30;99.90;;;;;;5051610;28;20235;-46
2020/12/26 08:14:33;;;;;;;22.88;12.90;;;3.40;99.90;;;;;;5051421;28;20196;-45
2020/12/26 08:17:01;;;;;;;16.65;12.38;;;2.80;99.90;;;;;;5051980;28;20226;-45
2020/12/26 08:19:28;;;;;;;19.88;14.02;;;3.10;99.90;;;;;;5051880;28;20195;-45
2020/12/26 08:21:57;;;;;;;17.95;13.45;;;3.30;99.90;;;;;;5051591;28;20696;-46
2020/12/26 08:24:24;;;;;;;19.90;12.90;;;3.10;99.90;;;;;;5051072;28;20250;-45
2020/12/26 08:26:53;;;;;;;25.33;11.90;;;3.20;99.90;;;;;;5051695;28;20199;-46
2020/12/26 08:29:25;;;;;;;20.73;12.98;;;3.10;99.90;;;;;;5051415;28;20192;-45
2020/12/26 08:32:02;;;;;;;16.77;12.05;;;3.40;99.90;;;;;;5051224;28;20603;-46
2020/12/26 08:34:44;;;;;;;17.33;11.35;;;3.40;99.90;;;;;;5051287;28;20298;-45
2020/12/26 08:37:19;;;;;;;19.48;12.05;;;3.50;99.90;;;;;;5066707;28;20676;-45
2020/12/26 08:39:46;;;;;;;15.13;11.35;;;3.40;99.90;;;;;;5071556;28;20403;-45
2020/12/26 08:42:18;;;;;;;16.00;11.50;;;3.30;99.90;;;;;;5071385;28;20223;-45
2020/12/26 08:44:45;;;;;;;22.77;12.52;;;3.10;99.90;;;;;;5071124;28;20296;-46
2020/12/26 08:47:12;;;;;;;21.23;14.32;;;3.10;99.90;;;;;;5069861;28;20203;-46
2020/12/26 08:49:45;;;;;;;17.90;12.07;;;3.60;99.90;;;;;;5071190;28;20225;-46
2020/12/26 08:52:22;;;;;;;19.15;13.45;;;3.10;99.90;;;;;;5073492;28;20563;-45
2020/12/26 08:55:01;;;;;;;23.92;14.07;;;3.30;99.90;;;;;;5075433;28;20220;-45
2020/12/26 08:57:28;;;;;;;22.25;13.48;;;3.40;99.90;;;;;;5075207;28;20218;-46
2020/12/26 08:59:54;;;;;;;19.02;12.85;;;3.70;99.90;;;;;;5075306;28;20618;-46
2020/12/26 09:02:21;;;;;;;24.08;14.30;;;3.50;99.90;;;;;;5074786;28;20306;-46
2020/12/26 09:04:48;;;;;;;17.50;13.02;;;3.40;99.90;;;;;;5074853;28;20219;-46
2020/12/26 09:07:21;;;;;;;23.17;12.25;;;3.50;99.90;;;;;;5073077;28;20191;-46
2020/12/26 09:09:48;;;;;;;19.75;13.55;;;3.40;99.90;;;;;;5075031;28;20191;-46
2020/12/26 09:12:15;;;;;;;19.20;14.57;;;3.50;99.90;;;;;;5074967;28;20237;-46
2020/12/26 09:14:42;;;;;;;24.05;13.00;;;3.60;99.90;;;;;;5074821;28;20280;-46
2020/12/26 09:17:09;;;;;;;21.63;13.95;;;3.90;99.90;;;;;;5074712;28;20215;-45
2020/12/26 09:19:43;;;;;;;18.45;13.45;;;3.80;99.90;;;;;;5074668;28;20245;-45
2020/12/26 09:22:11;;;;;;;20.73;14.45;;;3.80;99.90;;;;;;5074736;28;20226;-46
2020/12/26 09:24:38;;;;;;;26.58;15.45;;;3.90;99.90;;;;;;5074485;28;20223;-46
2020/12/26 09:27:04;;;;;;;18.40;13.70;;;4.00;99.90;;;;;;5074634;28;20562;-45
2020/12/26 09:29:31;;;;;;;18.98;13.20;;;3.80;99.90;;;;;;5075754;28;20656;-45
2020/12/26 09:32:07;;;;;;;22.02;14.65;;;3.90;99.90;;;;;;5075144;28;20258;-45
2020/12/26 09:34:36;;;;;;;22.75;14.88;;;4.00;99.90;;;;;;5074631;28;20219;-45
2020/12/26 09:37:04;;;;;;;22.88;14.38;;;4.00;99.90;;;;;;5074253;28;20206;-46
2020/12/26 09:39:32;;;;;;;20.45;14.65;;;3.90;99.90;;;;;;5074283;28;20215;-45
2020/12/26 09:41:59;;;;;;;21.65;13.05;;;4.20;99.90;;;;;;5074146;28;20227;-46
2020/12/26 09:44:25;;;;;;;21.48;14.40;;;4.30;99.90;;;;;;5074464;28;20246;-46
2020/12/26 09:46:57;;;;;;;22.60;15.40;;;4.30;99.90;;;;;;5074321;28;20195;-46
2020/12/26 09:49:23;;;;;;;19.95;13.77;;;4.20;99.90;;;;;;5073074;28;20203;-46
2020/12/26 09:51:50;;;;;;;25.77;13.93;;;4.30;99.90;;;;;;5074067;28;20194;-46
2020/12/26 09:54:16;;;;;;;22.80;15.18;;;4.30;99.90;;;;;;5073691;28;20187;-46
2020/12/26 09:56:44;;;;;;;22.08;14.20;;;4.30;99.90;;;;;;5074159;28;20223;-46
2020/12/26 09:59:10;;;;;;;22.52;13.88;;;4.40;99.90;;;;;;5074182;28;20192;-46
2020/12/26 10:01:39;;;;;;;18.88;12.85;;;4.40;99.90;;;;;;5074118;28;20562;-46
2020/12/26 10:04:06;;;;;;;18.83;13.25;;;4.40;99.90;;;;;;5072350;28;20223;-47
2020/12/26 10:06:32;;;;;;;19.08;13.70;;;4.70;99.90;;;;;;5073849;28;20196;-46
2020/12/26 10:08:59;;;;;;;17.52;12.82;;;4.50;99.90;;;;;;5073786;28;20258;-46
2020/12/26 10:11:25;;;;;;;17.77;12.52;;;4.60;99.90;;;;;;5074116;28;20195;-45
2020/12/26 10:13:53;;;;;;;17.13;12.63;;;4.80;99.90;;;;;;5073504;28;20243;-45
2020/12/26 10:16:20;;;;;;;18.98;11.82;;;4.50;99.90;;;;;;5073871;28;20218;-46
2020/12/26 10:18:48;;;;;;;22.23;12.75;;;4.50;99.90;;;;;;5073951;28;20194;-46
2020/12/26 10:21:15;;;;;;;17.35;12.10;;;4.50;99.90;;;;;;5073690;28;20675;-46
2020/12/26 10:23:42;;;;;;;19.60;11.95;;;4.60;99.90;;;;;;5073387;28;20576;-46
2020/12/26 10:26:08;;;;;;;19.77;13.32;;;4.60;99.90;;;;;;5073744;28;20195;-45
2020/12/26 10:28:35;;;;;;;23.40;13.75;;;4.50;99.90;;;;;;5073657;28;20196;-46
2020/12/26 10:31:03;;;;;;;18.27;11.70;;;4.60;99.90;;;;;;5073314;28;20652;-46
2020/12/26 10:33:29;;;;;;;18.85;12.05;;;4.60;99.90;;;;;;5073090;28;20687;-46
2020/12/26 10:35:56;;;;;;;16.52;9.98;;;4.70;99.90;;;;;;5073127;28;20192;-46
2020/12/26 10:38:23;;;;;;;17.98;11.45;;;4.50;99.90;;;;;;5073201;28;20203;-46
2020/12/26 10:40:49;;;;;;;18.42;12.68;;;4.70;99.90;;;;;;5073284;28;20691;-46
2020/12/26 10:43:16;;;;;;;17.90;12.65;;;4.50;99.90;;;;;;5072764;28;20222;-45
2020/12/26 10:45:42;;;;;;;17.55;12.05;;;4.30;99.90;;;;;;5072976;28;20195;-45
2020/12/26 10:48:10;;;;;;;21.55;13.15;;;4.60;99.90;;;;;;5071393;28;20264;-45
2020/12/26 10:50:36;;;;;;;16.50;12.18;;;4.70;99.90;;;;;;5072911;28;20199;-45
2020/12/26 10:53:03;;;;;;;17.95;12.18;;;4.80;99.90;;;;;;5072568;28;20290;-46
2020/12/26 10:55:29;;;;;;;15.23;13.27;;;4.70;99.90;;;;;;5072713;28;20260;-44
2020/12/26 10:57:56;;;;;;;17.50;11.95;;;4.70;99.90;;;;;;5072982;28;20203;-46
2020/12/26 11:00:23;;;;;;;18.60;12.35;;;4.70;99.90;;;;;;5071497;28;20202;-46
2020/12/26 11:02:49;;;;;;;20.15;13.18;;;4.50;99.90;;;;;;5072145;28;20215;-46
2020/12/26 11:05:16;;;;;;;20.45;13.75;;;4.70;99.90;;;;;;5072946;28;20229;-46
2020/12/26 11:07:43;;;;;;;22.60;14.18;;;4.60;99.90;;;;;;5072859;28;20199;-46
2020/12/26 11:10:10;;;;;;;25.30;13.60;;;4.50;99.90;;;;;;5072374;28;20240;-46
2020/12/26 11:12:36;;;;;;;21.40;14.65;;;4.70;99.90;;;;;;5071986;28;20614;-46
2020/12/26 11:15:04;;;;;;;19.88;12.88;;;4.60;99.90;;;;;;5071976;28;20191;-46
2020/12/26 11:17:30;;;;;;;24.30;15.65;;;4.50;99.90;;;;;;5072256;28;20285;-46
2020/12/26 11:19:56;;;;;;;22.58;14.30;;;4.80;99.90;;;;;;5070920;28;20227;-46
2020/12/26 11:22:24;;;;;;;20.92;13.77;;;4.60;99.90;;;;;;5071741;28;20696;-46
2020/12/26 11:24:50;;;;;;;20.95;16.17;;;4.60;99.90;;;;;;5072164;28;20219;-48
2020/12/26 11:27:17;;;;;;;24.23;16.20;;;4.40;99.90;;;;;;5071915;28;20207;-47
2020/12/26 11:29:43;;;;;;;23.02;15.55;;;4.60;99.90;;;;;;5072003;28;20199;-47
2020/12/26 11:32:10;;;;;;;21.60;14.35;;;4.50;99.90;;;;;;5071672;28;20264;-47
2020/12/26 11:34:36;;;;;;;24.52;15.32;;;4.60;99.90;;;;;;5071583;28;20188;-47
2020/12/26 11:37:05;;;;;;;24.77;14.45;;;4.30;99.90;;;;;;5071548;28;20199;-46
2020/12/26 11:39:32;;;;;;;29.60;15.45;;;3.70;99.90;;;;;;5072108;28;20257;-47
2020/12/26 11:41:59;;;;;;;19.50;13.13;;;4.20;99.90;;;;;;5071779;28;20219;-46
2020/12/26 11:44:25;;;;;;;17.38;12.75;;;4.30;99.90;;;;;;5071265;28;20289;-46
2020/12/26 11:46:52;;;;;;;21.20;15.45;;;4.40;99.90;;;;;;5071901;28;20199;-47
2020/12/26 11:49:22;;;;;;;18.20;13.35;;;4.60;99.90;;;;;;5071528;28;20664;-47
2020/12/26 11:51:51;;;;;;;16.83;11.00;;;4.40;99.90;;;;;;5071637;28;20278;-46
2020/12/26 11:54:17;;;;;;;19.63;12.93;;;4.60;99.90;;;;;;5071169;28;20196;-47
2020/12/26 11:56:45;;;;;;;19.67;12.45;;;4.50;99.90;;;;;;5071808;28;20631;-47
2020/12/26 11:59:12;;;;;;;16.70;11.50;;;4.10;99.90;;;;;;5071769;28;20648;-47
2020/12/26 12:01:38;;;;;;;18.10;12.52;;;3.60;99.90;;;;;;5072010;28;20253;-46
2020/12/26 12:04:05;;;;;;;17.15;12.60;;;4.30;99.90;;;;;;5071277;28;20733;-46
2020/12/26 12:06:31;;;;;;;16.58;11.88;;;4.00;99.90;;;;;;5072011;28;20196;-46
2020/12/26 12:08:58;;;;;;;17.90;11.65;;;3.60;99.90;;;;;;5071413;28;20198;-46
2020/12/26 12:11:25;;;;;;;15.40;11.55;;;4.30;99.90;;;;;;5071603;28;20191;-46
2020/12/26 12:13:52;;;;;;;13.57;10.38;;;4.40;99.90;;;;;;5071373;28;20268;-47
2020/12/26 12:16:19;;;;;;;15.82;9.82;;;4.50;99.90;;;;;;5071670;28;20679;-47
2020/12/26 12:18:46;;;;;;;16.10;9.68;;;4.50;99.90;;;;;;5071423;28;20191;-46
2020/12/26 12:21:12;;;;;;;13.55;9.15;;;4.60;99.90;;;;;;5071207;28;20584;-46
2020/12/26 12:23:39;;;;;;;16.80;10.05;;;4.70;99.90;;;;;;5070853;28;20219;-47
2020/12/26 12:26:06;;;;;;;14.02;10.27;;;4.60;99.90;;;;;;5068977;28;20517;-46
2020/12/26 12:28:32;;;;;;;13.52;10.13;;;4.70;99.90;;;;;;5071199;28;20235;-47
2020/12/26 12:31:00;;;;;;;15.05;9.98;;;4.60;99.90;;;;;;5071440;28;20195;-46
2020/12/26 12:33:26;;;;;;;18.48;11.18;;;4.70;99.90;;;;;;5070848;28;20207;-47
2020/12/26 12:35:52;;;;;;;12.77;10.18;;;4.50;99.90;;;;;;5071043;28;20272;-46
2020/12/26 12:38:19;;;;;;;16.60;10.52;;;4.60;99.90;;;;;;5071174;28;20195;-46
2020/12/26 12:40:46;;;;;;;13.77;9.75;;;4.60;99.90;;;;;;5070947;28;20195;-46
2020/12/26 12:43:12;;;;;;;14.18;9.35;;;4.60;99.90;;;;;;5070721;28;20680;-46
2020/12/26 12:45:39;;;;;;;15.15;9.88;;;4.60;99.90;;;;;;5071099;28;20241;-47
2020/12/26 12:48:06;;;;;;;14.40;8.85;;;4.60;99.90;;;;;;5071200;28;20199;-47
2020/12/26 12:50:32;;;;;;;15.75;9.40;;;4.50;99.90;;;;;;5071214;28;20202;-46
2020/12/26 12:52:59;;;;;;;11.95;9.18;;;4.30;99.90;;;;;;5070478;28;20211;-46
2020/12/26 12:55:25;;;;;;;11.93;9.50;;;3.90;99.90;;;;;;5071237;28;20195;-46